sensor_id;sensor_type;location;lat;lon;timestamp;temperature;humidity
24224;DHT22;12359;49.716;9.212;2023-09-30T00:00:27;18.20;1.00
24224;DHT22;12359;49.716;9.212;2023-09-30T00:02:53;18.30;1.00
24224;DHT22;12359;49.716;9.212;2023-09-30T00:05:18;18.30;1.00
24224;DHT22;12359;49.716;9.212;2023-09-30T00:07:47;18.30;1.00
24224;DHT22;12359;49.716;9.212;2023-09-30T00:10:13;18.30;1.00
24224;DHT22;12359;49.716;9.212;2023-09-30T00:12:40;18.30;1.00
24224;DHT22;12359;49.716;9.212;2023-09-30T00:15:06;18.30;1.00
24224;DHT22;12359;49.716;9.212;2023-09-30T00:17:31;18.30;1.00
24224;DHT22;12359;49.716;9.212;2023-09-30T00:19:57;18.20;1.00
24224;DHT22;12359;49.716;9.212;2023-09-30T00:22:24;18.20;1.00
24224;DHT22;12359;49.716;9.212;2023-09-30T00:24:50;18.30;1.00
24224;DHT22;12359;49.716;9.212;2023-09-30T00:27:16;18.30;1.00
24224;DHT22;12359;49.716;9.212;2023-09-30T00:29:42;18.30;1.00
24224;DHT22;12359;49.716;9.212;2023-09-30T00:32:07;18.30;1.00
24224;DHT22;12359;49.716;9.212;2023-09-30T00:34:34;18.30;1.00
24224;DHT22;12359;49.716;9.212;2023-09-30T00:37:00;18.30;1.00
24224;DHT22;12359;49.716;9.212;2023-09-30T00:39:26;18.30;1.00
24224;DHT22;12359;49.716;9.212;2023-09-30T00:41:56;18.30;1.00
24224;DHT22;12359;49.716;9.212;2023-09-30T00:44:24;18.20;1.00
24224;DHT22;12359;49.716;9.212;2023-09-30T00:46:50;18.30;1.00
24224;DHT22;12359;49.716;9.212;2023-09-30T00:49:16;18.30;1.20
24224;DHT22;12359;49.716;9.212;2023-09-30T00:51:44;18.30;28.90
24224;DHT22;12359;49.716;9.212;2023-09-30T00:54:10;18.20;62.60
24224;DHT22;12359;49.716;9.212;2023-09-30T00:56:47;18.20;99.90
24224;DHT22;12359;49.716;9.212;2023-09-30T00:59:14;18.20;58.10
24224;DHT22;12359;49.716;9.212;2023-09-30T01:01:44;18.20;37.00
24224;DHT22;12359;49.716;9.212;2023-09-30T01:04:12;18.10;18.80
24224;DHT22;12359;49.716;9.212;2023-09-30T01:06:38;18.20;5.40
24224;DHT22;12359;49.716;9.212;2023-09-30T01:09:04;18.10;20.90
24224;DHT22;12359;49.716;9.212;2023-09-30T01:11:29;18.10;20.30
24224;DHT22;12359;49.716;9.212;2023-09-30T01:13:55;18.00;16.50
24224;DHT22;12359;49.716;9.212;2023-09-30T01:16:21;18.10;1.00
24224;DHT22;12359;49.716;9.212;2023-09-30T01:18:47;18.10;1.00
24224;DHT22;12359;49.716;9.212;2023-09-30T01:21:14;18.00;1.00
24224;DHT22;12359;49.716;9.212;2023-09-30T01:23:40;18.00;99.90
24224;DHT22;12359;49.716;9.212;2023-09-30T01:26:10;18.00;1.00
24224;DHT22;12359;49.716;9.212;2023-09-30T01:28:37;18.00;1.00
24224;DHT22;12359;49.716;9.212;2023-09-30T01:31:04;18.00;99.90
24224;DHT22;12359;49.716;9.212;2023-09-30T01:33:30;18.10;99.90
24224;DHT22;12359;49.716;9.212;2023-09-30T01:35:57;18.00;99.90
24224;DHT22;12359;49.716;9.212;2023-09-30T01:38:23;18.10;99.90
24224;DHT22;12359;49.716;9.212;2023-09-30T01:40:49;18.00;99.90
24224;DHT22;12359;49.716;9.212;2023-09-30T01:43:15;18.00;99.90
24224;DHT22;12359;49.716;9.212;2023-09-30T01:45:41;18.00;99.90
24224;DHT22;12359;49.716;9.212;2023-09-30T01:48:07;18.00;99.90
24224;DHT22;12359;49.716;9.212;2023-09-30T01:50:33;17.90;99.90
24224;DHT22;12359;49.716;9.212;2023-09-30T01:52:58;17.90;99.90
24224;DHT22;12359;49.716;9.212;2023-09-30T01:55:24;17.80;99.90
24224;DHT22;12359;49.716;9.212;2023-09-30T01:57:50;17.80;99.90
24224;DHT22;12359;49.716;9.212;2023-09-30T02:00:15;17.80;99.90
24224;DHT22;12359;49.716;9.212;2023-09-30T02:02:42;17.70;99.90
24224;DHT22;12359;49.716;9.212;2023-09-30T02:05:08;17.70;99.90
24224;DHT22;12359;49.716;9.212;2023-09-30T02:07:35;17.60;99.90
24224;DHT22;12359;49.716;9.212;2023-09-30T02:10:00;17.70;99.90
24224;DHT22;12359;49.716;9.212;2023-09-30T02:12:27;17.60;1.00
24224;DHT22;12359;49.716;9.212;2023-09-30T02:14:57;17.60;1.00
24224;DHT22;12359;49.716;9.212;2023-09-30T02:17:23;17.70;1.00
24224;DHT22;12359;49.716;9.212;2023-09-30T02:19:48;17.70;1.00
24224;DHT22;12359;49.716;9.212;2023-09-30T02:22:15;17.50;1.00
24224;DHT22;12359;49.716;9.212;2023-09-30T02:24:41;17.60;1.00
24224;DHT22;12359;49.716;9.212;2023-09-30T02:27:06;17.60;1.00
24224;DHT22;12359;49.716;9.212;2023-09-30T02:29:33;17.60;1.00
24224;DHT22;12359;49.716;9.212;2023-09-30T02:31:59;17.50;1.00
24224;DHT22;12359;49.716;9.212;2023-09-30T02:34:24;17.50;1.00
24224;DHT22;12359;49.716;9.212;2023-09-30T02:36:50;17.40;1.00
24224;DHT22;12359;49.716;9.212;2023-09-30T02:39:17;17.30;1.00
24224;DHT22;12359;49.716;9.212;2023-09-30T02:41:43;17.30;25.70
24224;DHT22;12359;49.716;9.212;2023-09-30T02:44:09;17.30;51.70
24224;DHT22;12359;49.716;9.212;2023-09-30T02:46:35;17.30;91.00
24224;DHT22;12359;49.716;9.212;2023-09-30T02:49:03;17.20;99.90
24224;DHT22;12359;49.716;9.212;2023-09-30T02:51:29;17.20;99.90
24224;DHT22;12359;49.716;9.212;2023-09-30T02:53:56;17.20;99.90
24224;DHT22;12359;49.716;9.212;2023-09-30T02:56:21;17.30;99.90
24224;DHT22;12359;49.716;9.212;2023-09-30T02:58:52;17.30;99.90
24224;DHT22;12359;49.716;9.212;2023-09-30T03:01:18;17.30;99.90
24224;DHT22;12359;49.716;9.212;2023-09-30T03:03:44;17.20;99.90
24224;DHT22;12359;49.716;9.212;2023-09-30T03:06:10;17.30;99.90
24224;DHT22;12359;49.716;9.212;2023-09-30T03:08:37;17.30;99.90
24224;DHT22;12359;49.716;9.212;2023-09-30T03:11:03;17.30;99.90
24224;DHT22;12359;49.716;9.212;2023-09-30T03:13:30;17.20;99.90
24224;DHT22;12359;49.716;9.212;2023-09-30T03:15:56;17.00;99.90
24224;DHT22;12359;49.716;9.212;2023-09-30T03:18:22;17.20;99.90
24224;DHT22;12359;49.716;9.212;2023-09-30T03:20:58;17.20;99.90
24224;DHT22;12359;49.716;9.212;2023-09-30T03:23:26;17.00;99.90
24224;DHT22;12359;49.716;9.212;2023-09-30T03:25:59;17.00;99.90
24224;DHT22;12359;49.716;9.212;2023-09-30T03:28:28;17.10;99.90
24224;DHT22;12359;49.716;9.212;2023-09-30T03:30:54;17.20;99.90
24224;DHT22;12359;49.716;9.212;2023-09-30T03:33:21;17.20;99.90
24224;DHT22;12359;49.716;9.212;2023-09-30T03:35:47;17.30;99.90
24224;DHT22;12359;49.716;9.212;2023-09-30T03:38:13;17.20;99.90
24224;DHT22;12359;49.716;9.212;2023-09-30T03:40:42;17.20;99.90
24224;DHT22;12359;49.716;9.212;2023-09-30T03:43:13;17.20;1.00
24224;DHT22;12359;49.716;9.212;2023-09-30T03:45:40;17.30;99.90
24224;DHT22;12359;49.716;9.212;2023-09-30T03:48:07;17.30;99.90
24224;DHT22;12359;49.716;9.212;2023-09-30T03:50:33;17.20;99.90
24224;DHT22;12359;49.716;9.212;2023-09-30T03:53:03;17.20;99.90
24224;DHT22;12359;49.716;9.212;2023-09-30T03:55:30;17.20;99.90
24224;DHT22;12359;49.716;9.212;2023-09-30T03:57:57;17.20;1.00
24224;DHT22;12359;49.716;9.212;2023-09-30T04:00:23;17.20;99.90
24224;DHT22;12359;49.716;9.212;2023-09-30T04:02:50;17.20;99.90
24224;DHT22;12359;49.716;9.212;2023-09-30T04:05:20;17.10;1.00
24224;DHT22;12359;49.716;9.212;2023-09-30T04:07:52;17.10;1.00
24224;DHT22;12359;49.716;9.212;2023-09-30T04:10:17;17.10;1.00
24224;DHT22;12359;49.716;9.212;2023-09-30T04:12:43;17.10;1.00
24224;DHT22;12359;49.716;9.212;2023-09-30T04:15:09;17.00;1.00
24224;DHT22;12359;49.716;9.212;2023-09-30T04:17:38;16.90;19.60
24224;DHT22;12359;49.716;9.212;2023-09-30T04:20:06;16.90;14.20
24224;DHT22;12359;49.716;9.212;2023-09-30T04:22:35;16.90;8.10
24224;DHT22;12359;49.716;9.212;2023-09-30T04:25:01;17.00;12.20
24224;DHT22;12359;49.716;9.212;2023-09-30T04:27:30;17.00;21.50
24224;DHT22;12359;49.716;9.212;2023-09-30T04:29:56;16.90;11.40
24224;DHT22;12359;49.716;9.212;2023-09-30T04:32:22;16.80;20.50
24224;DHT22;12359;49.716;9.212;2023-09-30T04:34:48;17.00;26.00
24224;DHT22;12359;49.716;9.212;2023-09-30T04:37:14;17.00;11.00
24224;DHT22;12359;49.716;9.212;2023-09-30T04:39:39;17.00;16.30
24224;DHT22;12359;49.716;9.212;2023-09-30T04:42:05;16.70;21.20
24224;DHT22;12359;49.716;9.212;2023-09-30T04:44:31;17.00;45.20
24224;DHT22;12359;49.716;9.212;2023-09-30T04:46:57;16.90;67.50
24224;DHT22;12359;49.716;9.212;2023-09-30T04:49:23;16.70;38.20
24224;DHT22;12359;49.716;9.212;2023-09-30T04:51:49;16.80;45.70
24224;DHT22;12359;49.716;9.212;2023-09-30T04:54:15;16.90;19.00
24224;DHT22;12359;49.716;9.212;2023-09-30T04:56:40;16.80;19.40
24224;DHT22;12359;49.716;9.212;2023-09-30T04:59:06;16.70;58.70
24224;DHT22;12359;49.716;9.212;2023-09-30T05:01:32;16.80;54.80
24224;DHT22;12359;49.716;9.212;2023-09-30T05:03:58;16.90;55.50
24224;DHT22;12359;49.716;9.212;2023-09-30T05:06:24;16.80;99.90
24224;DHT22;12359;49.716;9.212;2023-09-30T05:08:50;16.70;99.90
24224;DHT22;12359;49.716;9.212;2023-09-30T05:13:55;16.70;99.90
24224;DHT22;12359;49.716;9.212;2023-09-30T05:16:20;16.80;99.90
24224;DHT22;12359;49.716;9.212;2023-09-30T05:18:46;16.60;99.90
24224;DHT22;12359;49.716;9.212;2023-09-30T05:21:13;16.80;99.90
24224;DHT22;12359;49.716;9.212;2023-09-30T05:23:39;16.80;99.90
24224;DHT22;12359;49.716;9.212;2023-09-30T05:26:04;16.70;99.90
24224;DHT22;12359;49.716;9.212;2023-09-30T05:28:31;16.70;99.90
24224;DHT22;12359;49.716;9.212;2023-09-30T05:30:57;16.60;99.90
24224;DHT22;12359;49.716;9.212;2023-09-30T05:33:26;16.60;99.90
24224;DHT22;12359;49.716;9.212;2023-09-30T05:35:53;16.60;99.90
24224;DHT22;12359;49.716;9.212;2023-09-30T05:38:20;16.70;99.90
24224;DHT22;12359;49.716;9.212;2023-09-30T05:40:46;16.80;99.90
24224;DHT22;12359;49.716;9.212;2023-09-30T05:43:12;16.70;99.90
24224;DHT22;12359;49.716;9.212;2023-09-30T05:45:39;16.70;99.90
24224;DHT22;12359;49.716;9.212;2023-09-30T05:48:15;16.70;99.90
24224;DHT22;12359;49.716;9.212;2023-09-30T05:50:41;16.60;99.90
24224;DHT22;12359;49.716;9.212;2023-09-30T05:53:08;16.60;99.90
24224;DHT22;12359;49.716;9.212;2023-09-30T05:55:37;16.60;99.90
24224;DHT22;12359;49.716;9.212;2023-09-30T05:58:03;16.60;99.90
24224;DHT22;12359;49.716;9.212;2023-09-30T06:00:28;16.60;99.90
24224;DHT22;12359;49.716;9.212;2023-09-30T06:02:59;16.70;99.90
24224;DHT22;12359;49.716;9.212;2023-09-30T06:05:25;16.90;99.90
24224;DHT22;12359;49.716;9.212;2023-09-30T06:07:56;16.90;99.90
24224;DHT22;12359;49.716;9.212;2023-09-30T06:10:22;17.10;99.90
24224;DHT22;12359;49.716;9.212;2023-09-30T06:12:49;17.00;99.90
24224;DHT22;12359;49.716;9.212;2023-09-30T06:15:16;17.10;99.90
24224;DHT22;12359;49.716;9.212;2023-09-30T06:17:50;17.10;99.90
24224;DHT22;12359;49.716;9.212;2023-09-30T06:20:18;17.30;92.70
24224;DHT22;12359;49.716;9.212;2023-09-30T06:22:46;17.40;1.00
24224;DHT22;12359;49.716;9.212;2023-09-30T06:25:15;17.50;1.00
24224;DHT22;12359;49.716;9.212;2023-09-30T06:27:44;17.70;99.90
24224;DHT22;12359;49.716;9.212;2023-09-30T06:30:11;18.00;99.90
24224;DHT22;12359;49.716;9.212;2023-09-30T06:47:19;20.70;82.20
24224;DHT22;12359;49.716;9.212;2023-09-30T06:49:46;20.90;6.70
24224;DHT22;12359;49.716;9.212;2023-09-30T06:52:12;21.20;99.90
24224;DHT22;12359;49.716;9.212;2023-09-30T06:54:38;21.60;53.70
24224;DHT22;12359;49.716;9.212;2023-09-30T06:57:04;21.70;99.90
24224;DHT22;12359;49.716;9.212;2023-09-30T06:59:32;21.70;99.90
24224;DHT22;12359;49.716;9.212;2023-09-30T07:01:58;21.80;99.90
24224;DHT22;12359;49.716;9.212;2023-09-30T07:04:24;22.10;99.90
24224;DHT22;12359;49.716;9.212;2023-09-30T07:06:52;22.20;15.50
24224;DHT22;12359;49.716;9.212;2023-09-30T07:09:18;22.00;1.00
24224;DHT22;12359;49.716;9.212;2023-09-30T07:11:46;21.90;36.20
24224;DHT22;12359;49.716;9.212;2023-09-30T08:17:49;24.30;99.90
24224;DHT22;12359;49.716;9.212;2023-09-30T08:20:15;24.90;99.90
24224;DHT22;12359;49.716;9.212;2023-09-30T08:22:40;24.90;99.90
24224;DHT22;12359;49.716;9.212;2023-09-30T08:25:07;24.90;99.90
24224;DHT22;12359;49.716;9.212;2023-09-30T08:27:33;25.00;99.90
24224;DHT22;12359;49.716;9.212;2023-09-30T08:29:59;25.50;99.90
24224;DHT22;12359;49.716;9.212;2023-09-30T08:32:25;25.70;99.90
24224;DHT22;12359;49.716;9.212;2023-09-30T08:34:51;25.70;99.90
24224;DHT22;12359;49.716;9.212;2023-09-30T08:37:16;25.90;99.90
24224;DHT22;12359;49.716;9.212;2023-09-30T08:39:42;26.20;99.90
24224;DHT22;12359;49.716;9.212;2023-09-30T08:42:11;26.20;99.90
24224;DHT22;12359;49.716;9.212;2023-09-30T08:47:06;25.00;1.00
24224;DHT22;12359;49.716;9.212;2023-09-30T08:49:37;24.40;93.20
24224;DHT22;12359;49.716;9.212;2023-09-30T08:52:07;23.90;99.90
24224;DHT22;12359;49.716;9.212;2023-09-30T08:54:34;23.50;99.90
24224;DHT22;12359;49.716;9.212;2023-09-30T08:59:31;23.90;1.00
24224;DHT22;12359;49.716;9.212;2023-09-30T09:01:57;24.00;99.90
24224;DHT22;12359;49.716;9.212;2023-09-30T09:04:24;24.10;85.60
24224;DHT22;12359;49.716;9.212;2023-09-30T09:06:50;23.60;99.90
24224;DHT22;12359;49.716;9.212;2023-09-30T09:09:17;23.60;79.00
24224;DHT22;12359;49.716;9.212;2023-09-30T09:11:46;23.70;46.60
24224;DHT22;12359;49.716;9.212;2023-09-30T09:14:12;23.50;45.60
24224;DHT22;12359;49.716;9.212;2023-09-30T09:16:51;22.80;90.80
24224;DHT22;12359;49.716;9.212;2023-09-30T09:19:18;22.50;99.90
24224;DHT22;12359;49.716;9.212;2023-09-30T09:21:59;23.70;99.90
24224;DHT22;12359;49.716;9.212;2023-09-30T09:24:35;24.40;95.30
24224;DHT22;12359;49.716;9.212;2023-09-30T09:27:11;24.10;71.00
24224;DHT22;12359;49.716;9.212;2023-09-30T09:29:37;23.60;68.50
24224;DHT22;12359;49.716;9.212;2023-09-30T09:32:16;23.00;99.90
24224;DHT22;12359;49.716;9.212;2023-09-30T09:34:43;22.70;99.90
24224;DHT22;12359;49.716;9.212;2023-09-30T09:37:19;22.40;99.90
24224;DHT22;12359;49.716;9.212;2023-09-30T09:39:56;22.50;99.90
24224;DHT22;12359;49.716;9.212;2023-09-30T09:42:28;22.10;99.90
24224;DHT22;12359;49.716;9.212;2023-09-30T09:44:55;22.10;99.90
24224;DHT22;12359;49.716;9.212;2023-09-30T09:47:23;22.20;99.90
24224;DHT22;12359;49.716;9.212;2023-09-30T09:49:49;22.90;99.90
24224;DHT22;12359;49.716;9.212;2023-09-30T09:52:16;23.30;99.90
24224;DHT22;12359;49.716;9.212;2023-09-30T09:54:45;22.90;99.90
24224;DHT22;12359;49.716;9.212;2023-09-30T09:57:11;22.40;99.90
24224;DHT22;12359;49.716;9.212;2023-09-30T09:59:39;22.20;99.90
24224;DHT22;12359;49.716;9.212;2023-09-30T10:02:12;21.80;99.90
24224;DHT22;12359;49.716;9.212;2023-09-30T10:04:42;22.50;99.90
24224;DHT22;12359;49.716;9.212;2023-09-30T10:07:12;22.80;99.90
24224;DHT22;12359;49.716;9.212;2023-09-30T10:09:43;23.30;99.90
24224;DHT22;12359;49.716;9.212;2023-09-30T10:12:11;23.50;99.90
24224;DHT22;12359;49.716;9.212;2023-09-30T10:14:37;23.30;99.90
24224;DHT22;12359;49.716;9.212;2023-09-30T10:17:03;23.20;99.90
24224;DHT22;12359;49.716;9.212;2023-09-30T10:19:29;23.40;99.90
24224;DHT22;12359;49.716;9.212;2023-09-30T10:24:41;24.10;99.90
24224;DHT22;12359;49.716;9.212;2023-09-30T10:29:53;25.00;93.00
24224;DHT22;12359;49.716;9.212;2023-09-30T10:32:20;26.00;79.80
24224;DHT22;12359;49.716;9.212;2023-09-30T10:34:49;26.20;61.00
24224;DHT22;12359;49.716;9.212;2023-09-30T10:37:21;26.10;46.10
24224;DHT22;12359;49.716;9.212;2023-09-30T10:39:58;26.00;43.40
24224;DHT22;12359;49.716;9.212;2023-09-30T10:43:02;25.50;36.00
24224;DHT22;12359;49.716;9.212;2023-09-30T10:53:45;23.90;74.30
24224;DHT22;12359;49.716;9.212;2023-09-30T10:56:12;23.80;68.40
24224;DHT22;12359;49.716;9.212;2023-09-30T10:58:48;23.30;95.20
24224;DHT22;12359;49.716;9.212;2023-09-30T11:01:22;22.90;99.90
24224;DHT22;12359;49.716;9.212;2023-09-30T11:03:49;22.80;99.90
24224;DHT22;12359;49.716;9.212;2023-09-30T11:06:17;22.40;99.90
24224;DHT22;12359;49.716;9.212;2023-09-30T11:08:46;22.20;99.90
24224;DHT22;12359;49.716;9.212;2023-09-30T11:13:42;22.20;1.30
24224;DHT22;12359;49.716;9.212;2023-09-30T11:16:07;22.30;99.90
24224;DHT22;12359;49.716;9.212;2023-09-30T11:18:34;22.70;99.90
24224;DHT22;12359;49.716;9.212;2023-09-30T11:21:11;23.20;99.90
24224;DHT22;12359;49.716;9.212;2023-09-30T11:23:41;23.80;99.90
24224;DHT22;12359;49.716;9.212;2023-09-30T11:26:07;24.50;99.90
24224;DHT22;12359;49.716;9.212;2023-09-30T11:31:02;25.10;90.90
24224;DHT22;12359;49.716;9.212;2023-09-30T11:33:29;25.30;1.00
24224;DHT22;12359;49.716;9.212;2023-09-30T11:36:05;25.60;1.00
24224;DHT22;12359;49.716;9.212;2023-09-30T11:38:32;25.80;1.00
24224;DHT22;12359;49.716;9.212;2023-09-30T11:41:02;26.10;1.00
24224;DHT22;12359;49.716;9.212;2023-09-30T11:43:33;26.00;1.00
24224;DHT22;12359;49.716;9.212;2023-09-30T11:48:38;25.70;1.00
24224;DHT22;12359;49.716;9.212;2023-09-30T11:51:04;24.90;1.00
24224;DHT22;12359;49.716;9.212;2023-09-30T11:53:31;24.50;28.10
24224;DHT22;12359;49.716;9.212;2023-09-30T11:56:00;24.20;53.80
24224;DHT22;12359;49.716;9.212;2023-09-30T11:58:28;24.30;99.90
24224;DHT22;12359;49.716;9.212;2023-09-30T12:00:55;24.40;90.40
24224;DHT22;12359;49.716;9.212;2023-09-30T12:03:23;24.00;67.50
24224;DHT22;12359;49.716;9.212;2023-09-30T12:05:49;24.00;39.70
24224;DHT22;12359;49.716;9.212;2023-09-30T12:08:14;24.40;99.90
24224;DHT22;12359;49.716;9.212;2023-09-30T12:10:40;24.50;96.20
24224;DHT22;12359;49.716;9.212;2023-09-30T12:13:06;24.70;99.90
24224;DHT22;12359;49.716;9.212;2023-09-30T12:15:32;24.30;75.40
24224;DHT22;12359;49.716;9.212;2023-09-30T12:17:57;24.00;99.90
24224;DHT22;12359;49.716;9.212;2023-09-30T12:20:23;23.60;45.20
24224;DHT22;12359;49.716;9.212;2023-09-30T12:22:50;23.50;74.00
24224;DHT22;12359;49.716;9.212;2023-09-30T12:25:18;23.50;85.30
24224;DHT22;12359;49.716;9.212;2023-09-30T12:27:48;23.80;98.00
24224;DHT22;12359;49.716;9.212;2023-09-30T12:30:13;24.00;98.90
24224;DHT22;12359;49.716;9.212;2023-09-30T12:32:39;24.00;96.40
24224;DHT22;12359;49.716;9.212;2023-09-30T12:35:06;24.30;71.10
24224;DHT22;12359;49.716;9.212;2023-09-30T12:37:32;24.50;32.00
24224;DHT22;12359;49.716;9.212;2023-09-30T12:39:58;24.70;56.80
24224;DHT22;12359;49.716;9.212;2023-09-30T12:42:24;24.60;87.00
24224;DHT22;12359;49.716;9.212;2023-09-30T12:44:50;24.20;98.60
24224;DHT22;12359;49.716;9.212;2023-09-30T12:47:15;24.00;97.70
24224;DHT22;12359;49.716;9.212;2023-09-30T12:49:41;23.70;99.90
24224;DHT22;12359;49.716;9.212;2023-09-30T12:52:07;23.30;99.90
24224;DHT22;12359;49.716;9.212;2023-09-30T12:54:33;23.10;99.90
24224;DHT22;12359;49.716;9.212;2023-09-30T12:56:59;23.20;84.70
24224;DHT22;12359;49.716;9.212;2023-09-30T12:59:25;23.50;30.80
24224;DHT22;12359;49.716;9.212;2023-09-30T13:01:51;23.80;31.60
24224;DHT22;12359;49.716;9.212;2023-09-30T13:04:17;23.80;36.00
24224;DHT22;12359;49.716;9.212;2023-09-30T13:06:44;23.90;56.90
24224;DHT22;12359;49.716;9.212;2023-09-30T13:09:10;23.70;66.20
24224;DHT22;12359;49.716;9.212;2023-09-30T13:11:37;23.50;76.00
24224;DHT22;12359;49.716;9.212;2023-09-30T13:14:03;23.20;90.40
24224;DHT22;12359;49.716;9.212;2023-09-30T13:16:29;23.20;83.50
24224;DHT22;12359;49.716;9.212;2023-09-30T13:18:55;23.20;62.50
24224;DHT22;12359;49.716;9.212;2023-09-30T13:21:20;23.40;55.00
24224;DHT22;12359;49.716;9.212;2023-09-30T13:23:46;23.50;50.00
24224;DHT22;12359;49.716;9.212;2023-09-30T13:26:12;23.50;50.20
24224;DHT22;12359;49.716;9.212;2023-09-30T13:28:37;23.30;59.90
24224;DHT22;12359;49.716;9.212;2023-09-30T13:31:03;23.20;52.00
24224;DHT22;12359;49.716;9.212;2023-09-30T13:33:29;23.10;69.50
24224;DHT22;12359;49.716;9.212;2023-09-30T13:35:55;23.20;27.50
24224;DHT22;12359;49.716;9.212;2023-09-30T13:38:21;23.20;24.80
24224;DHT22;12359;49.716;9.212;2023-09-30T13:40:47;23.10;34.20
24224;DHT22;12359;49.716;9.212;2023-09-30T13:43:13;23.20;17.80
24224;DHT22;12359;49.716;9.212;2023-09-30T13:45:38;23.20;38.20
24224;DHT22;12359;49.716;9.212;2023-09-30T13:48:04;23.30;31.30
24224;DHT22;12359;49.716;9.212;2023-09-30T13:50:31;23.30;32.60
24224;DHT22;12359;49.716;9.212;2023-09-30T13:52:57;23.30;31.10
24224;DHT22;12359;49.716;9.212;2023-09-30T13:55:26;23.30;23.40
24224;DHT22;12359;49.716;9.212;2023-09-30T13:57:51;23.30;30.90
24224;DHT22;12359;49.716;9.212;2023-09-30T14:00:17;23.30;47.10
24224;DHT22;12359;49.716;9.212;2023-09-30T14:02:43;23.10;38.50
24224;DHT22;12359;49.716;9.212;2023-09-30T14:05:09;23.20;33.30
24224;DHT22;12359;49.716;9.212;2023-09-30T14:07:36;22.90;50.30
24224;DHT22;12359;49.716;9.212;2023-09-30T14:10:03;22.90;35.90
24224;DHT22;12359;49.716;9.212;2023-09-30T14:12:29;22.90;28.50
24224;DHT22;12359;49.716;9.212;2023-09-30T14:14:55;22.90;66.20
24224;DHT22;12359;49.716;9.212;2023-09-30T14:17:21;22.80;33.90
24224;DHT22;12359;49.716;9.212;2023-09-30T14:19:46;22.70;45.80
24224;DHT22;12359;49.716;9.212;2023-09-30T14:22:12;22.40;38.90
24224;DHT22;12359;49.716;9.212;2023-09-30T14:24:38;22.60;51.80
24224;DHT22;12359;49.716;9.212;2023-09-30T14:27:04;22.50;49.80
24224;DHT22;12359;49.716;9.212;2023-09-30T14:29:30;22.30;43.60
24224;DHT22;12359;49.716;9.212;2023-09-30T14:31:56;22.40;51.90
24224;DHT22;12359;49.716;9.212;2023-09-30T14:34:23;22.40;45.20
24224;DHT22;12359;49.716;9.212;2023-09-30T14:36:49;22.50;48.00
24224;DHT22;12359;49.716;9.212;2023-09-30T14:39:16;22.60;53.10
24224;DHT22;12359;49.716;9.212;2023-09-30T14:41:45;22.50;49.60
24224;DHT22;12359;49.716;9.212;2023-09-30T14:44:11;22.40;58.90
24224;DHT22;12359;49.716;9.212;2023-09-30T14:46:38;22.30;75.30
24224;DHT22;12359;49.716;9.212;2023-09-30T14:49:05;22.20;70.20
24224;DHT22;12359;49.716;9.212;2023-09-30T14:51:34;22.10;79.20
24224;DHT22;12359;49.716;9.212;2023-09-30T14:54:00;21.90;99.90
24224;DHT22;12359;49.716;9.212;2023-09-30T14:56:26;21.80;99.90
24224;DHT22;12359;49.716;9.212;2023-09-30T14:58:51;21.70;99.90
24224;DHT22;12359;49.716;9.212;2023-09-30T15:01:17;21.60;99.90
24224;DHT22;12359;49.716;9.212;2023-09-30T15:03:43;21.50;99.90
24224;DHT22;12359;49.716;9.212;2023-09-30T15:06:09;21.40;99.90
24224;DHT22;12359;49.716;9.212;2023-09-30T15:11:02;21.20;1.00
24224;DHT22;12359;49.716;9.212;2023-09-30T15:13:28;21.30;1.00
24224;DHT22;12359;49.716;9.212;2023-09-30T15:15:55;21.20;1.00
24224;DHT22;12359;49.716;9.212;2023-09-30T15:18:21;21.20;1.00
24224;DHT22;12359;49.716;9.212;2023-09-30T15:20:49;21.20;1.00
24224;DHT22;12359;49.716;9.212;2023-09-30T15:23:15;21.10;1.00
24224;DHT22;12359;49.716;9.212;2023-09-30T15:25:42;21.10;1.00
24224;DHT22;12359;49.716;9.212;2023-09-30T15:28:09;21.00;1.00
24224;DHT22;12359;49.716;9.212;2023-09-30T15:30:34;21.00;1.00
24224;DHT22;12359;49.716;9.212;2023-09-30T15:33:01;21.00;1.00
24224;DHT22;12359;49.716;9.212;2023-09-30T15:35:28;20.90;1.00
24224;DHT22;12359;49.716;9.212;2023-09-30T15:37:53;20.80;1.00
24224;DHT22;12359;49.716;9.212;2023-09-30T15:40:19;20.70;1.00
24224;DHT22;12359;49.716;9.212;2023-09-30T15:42:45;20.70;1.00
24224;DHT22;12359;49.716;9.212;2023-09-30T15:45:12;20.70;1.00
24224;DHT22;12359;49.716;9.212;2023-09-30T15:47:38;20.60;1.00
24224;DHT22;12359;49.716;9.212;2023-09-30T15:50:04;20.60;1.00
24224;DHT22;12359;49.716;9.212;2023-09-30T15:52:31;20.50;1.00
24224;DHT22;12359;49.716;9.212;2023-09-30T15:54:57;20.40;10.40
24224;DHT22;12359;49.716;9.212;2023-09-30T15:57:23;20.30;23.20
24224;DHT22;12359;49.716;9.212;2023-09-30T15:59:49;19.60;1.00
24224;DHT22;12359;49.716;9.212;2023-09-30T16:02:15;20.20;1.00
24224;DHT22;12359;49.716;9.212;2023-09-30T16:04:41;20.00;1.00
24224;DHT22;12359;49.716;9.212;2023-09-30T16:07:07;19.90;1.00
24224;DHT22;12359;49.716;9.212;2023-09-30T16:09:32;19.80;1.00
24224;DHT22;12359;49.716;9.212;2023-09-30T16:12:00;19.80;1.00
24224;DHT22;12359;49.716;9.212;2023-09-30T16:14:28;19.80;1.00
24224;DHT22;12359;49.716;9.212;2023-09-30T16:16:53;19.80;1.00
24224;DHT22;12359;49.716;9.212;2023-09-30T16:19:20;19.70;1.00
24224;DHT22;12359;49.716;9.212;2023-09-30T16:21:46;19.70;1.00
24224;DHT22;12359;49.716;9.212;2023-09-30T16:24:12;19.70;1.00
24224;DHT22;12359;49.716;9.212;2023-09-30T16:26:39;19.60;1.00
24224;DHT22;12359;49.716;9.212;2023-09-30T16:29:05;19.60;6.70
24224;DHT22;12359;49.716;9.212;2023-09-30T16:31:30;19.50;1.00
24224;DHT22;12359;49.716;9.212;2023-09-30T16:33:56;19.30;12.40
24224;DHT22;12359;49.716;9.212;2023-09-30T16:36:22;19.30;5.70
24224;DHT22;12359;49.716;9.212;2023-09-30T16:38:48;19.20;36.90
24224;DHT22;12359;49.716;9.212;2023-09-30T16:41:14;19.10;21.80
24224;DHT22;12359;49.716;9.212;2023-09-30T16:46:06;18.80;1.00
24224;DHT22;12359;49.716;9.212;2023-09-30T16:48:32;18.60;99.90
24224;DHT22;12359;49.716;9.212;2023-09-30T16:50:57;18.40;99.90
24224;DHT22;12359;49.716;9.212;2023-09-30T16:53:23;18.20;30.10
24224;DHT22;12359;49.716;9.212;2023-09-30T16:55:50;18.00;13.40
24224;DHT22;12359;49.716;9.212;2023-09-30T16:58:17;17.90;45.00
24224;DHT22;12359;49.716;9.212;2023-09-30T17:00:43;17.70;99.30
24224;DHT22;12359;49.716;9.212;2023-09-30T17:03:09;17.60;99.90
24224;DHT22;12359;49.716;9.212;2023-09-30T17:05:37;17.50;99.90
24224;DHT22;12359;49.716;9.212;2023-09-30T17:08:03;17.30;99.90
24224;DHT22;12359;49.716;9.212;2023-09-30T17:10:29;17.30;99.90
24224;DHT22;12359;49.716;9.212;2023-09-30T17:12:55;17.10;99.90
24224;DHT22;12359;49.716;9.212;2023-09-30T17:15:21;17.10;99.90
24224;DHT22;12359;49.716;9.212;2023-09-30T17:17:47;16.90;99.90
24224;DHT22;12359;49.716;9.212;2023-09-30T17:20:12;16.90;1.00
24224;DHT22;12359;49.716;9.212;2023-09-30T17:22:39;16.70;1.00
24224;DHT22;12359;49.716;9.212;2023-09-30T17:25:05;16.60;1.00